sensor_id;sensor_type;location;lat;lon;timestamp;pressure;altitude;pressure_sealevel;temperature;humidity
72942;BME280;69665;55.822;37.330;2024-01-27T00:00:57;99408.72;;;-0.86;63.45
72942;BME280;69665;55.822;37.330;2024-01-27T00:03:23;99436.31;;;-0.85;63.56
72942;BME280;69665;55.822;37.330;2024-01-27T00:05:48;99436.25;;;-0.94;63.70
72942;BME280;69665;55.822;37.330;2024-01-27T00:08:14;99443.94;;;-1.04;63.46
72942;BME280;69665;55.822;37.330;2024-01-27T00:10:40;99419.75;;;-1.24;63.29
72942;BME280;69665;55.822;37.330;2024-01-27T00:13:05;99407.66;;;-1.29;63.68
72942;BME280;69665;55.822;37.330;2024-01-27T00:15:31;99429.19;;;-1.26;63.66
72942;BME280;69665;55.822;37.330;2024-01-27T00:17:56;99434.41;;;-1.17;64.18
72942;BME280;69665;55.822;37.330;2024-01-27T00:20:22;99418.84;;;-1.29;63.88
72942;BME280;69665;55.822;37.330;2024-01-27T00:22:47;99431.78;;;-1.24;63.92
72942;BME280;69665;55.822;37.330;2024-01-27T00:25:13;99435.22;;;-1.24;63.98
72942;BME280;69665;55.822;37.330;2024-01-27T00:27:38;99436.94;;;-1.24;64.28
72942;BME280;69665;55.822;37.330;2024-01-27T00:30:05;99403.25;;;-1.47;64.49
72942;BME280;69665;55.822;37.330;2024-01-27T00:32:31;99444.78;;;-1.11;64.51
72942;BME280;69665;55.822;37.330;2024-01-27T00:34:59;99439.63;;;-1.09;64.16
72942;BME280;69665;55.822;37.330;2024-01-27T00:37:24;99437.88;;;-1.15;64.18
72942;BME280;69665;55.822;37.330;2024-01-27T00:39:51;99442.25;;;-1.02;64.54
72942;BME280;69665;55.822;37.330;2024-01-27T00:42:17;99417.22;;;-1.13;64.11
72942;BME280;69665;55.822;37.330;2024-01-27T00:44:44;99432.69;;;-1.16;63.92
72942;BME280;69665;55.822;37.330;2024-01-27T00:47:10;99446.50;;;-1.14;63.93
72942;BME280;69665;55.822;37.330;2024-01-27T00:49:35;99414.47;;;-1.42;63.86
72942;BME280;69665;55.822;37.330;2024-01-27T00:52:01;99430.91;;;-1.28;64.37
72942;BME280;69665;55.822;37.330;2024-01-27T00:54:27;99434.38;;;-1.23;64.22
72942;BME280;69665;55.822;37.330;2024-01-27T00:56:52;99449.06;;;-1.16;63.68
72942;BME280;69665;55.822;37.330;2024-01-27T00:59:18;99431.78;;;-1.26;63.92
72942;BME280;69665;55.822;37.330;2024-01-27T01:01:44;99449.03;;;-1.22;63.98
72942;BME280;69665;55.822;37.330;2024-01-27T01:04:09;99448.19;;;-1.19;64.82
72942;BME280;69665;55.822;37.330;2024-01-27T01:06:35;99451.69;;;-1.11;64.44
72942;BME280;69665;55.822;37.330;2024-01-27T01:09:03;99445.69;;;-1.03;64.31
72942;BME280;69665;55.822;37.330;2024-01-27T01:11:29;99422.38;;;-1.13;64.31
72942;BME280;69665;55.822;37.330;2024-01-27T01:13:55;99427.59;;;-1.03;64.15
72942;BME280;69665;55.822;37.330;2024-01-27T01:16:20;99423.28;;;-1.00;64.63
72942;BME280;69665;55.822;37.330;2024-01-27T01:18:46;99450.09;;;-0.86;64.97
72942;BME280;69665;55.822;37.330;2024-01-27T01:21:12;99431.09;;;-0.94;64.31
72942;BME280;69665;55.822;37.330;2024-01-27T01:23:38;99443.19;;;-0.87;64.35
72942;BME280;69665;55.822;37.330;2024-01-27T01:26:03;99450.09;;;-0.83;63.90
72942;BME280;69665;55.822;37.330;2024-01-27T01:28:29;99436.28;;;-0.88;64.28
72942;BME280;69665;55.822;37.330;2024-01-27T01:30:57;99438.00;;;-0.87;63.84
72942;BME280;69665;55.822;37.330;2024-01-27T01:33:22;99414.72;;;-0.96;64.30
72942;BME280;69665;55.822;37.330;2024-01-27T01:35:48;99415.63;;;-0.88;63.95
72942;BME280;69665;55.822;37.330;2024-01-27T01:38:13;99447.53;;;-0.71;64.10
72942;BME280;69665;55.822;37.330;2024-01-27T01:40:39;99449.28;;;-0.70;63.55
72942;BME280;69665;55.822;37.330;2024-01-27T01:43:13;99447.56;;;-0.68;63.53
72942;BME280;69665;55.822;37.330;2024-01-27T01:45:39;99454.44;;;-0.70;64.10
72942;BME280;69665;55.822;37.330;2024-01-27T01:48:05;99446.66;;;-0.78;63.73
72942;BME280;69665;55.822;37.330;2024-01-27T01:50:32;99441.47;;;-0.85;63.43
72942;BME280;69665;55.822;37.330;2024-01-27T01:52:58;99454.41;;;-0.81;63.62
72942;BME280;69665;55.822;37.330;2024-01-27T01:55:24;99457.88;;;-0.80;63.78
72942;BME280;69665;55.822;37.330;2024-01-27T01:57:49;99412.06;;;-1.10;64.29
72942;BME280;69665;55.822;37.330;2024-01-27T02:00:15;99441.41;;;-0.97;63.76
72942;BME280;69665;55.822;37.330;2024-01-27T02:02:44;99428.47;;;-1.02;64.14
72942;BME280;69665;55.822;37.330;2024-01-27T02:05:12;99421.56;;;-1.06;64.22
72942;BME280;69665;55.822;37.330;2024-01-27T02:07:38;99440.59;;;-0.90;63.99
72942;BME280;69665;55.822;37.330;2024-01-27T02:10:05;99435.38;;;-0.95;63.77
72942;BME280;69665;55.822;37.330;2024-01-27T02:12:31;99453.56;;;-0.83;64.12
72942;BME280;69665;55.822;37.330;2024-01-27T02:14:57;99441.44;;;-0.91;63.90
72942;BME280;69665;55.822;37.330;2024-01-27T02:17:23;99467.34;;;-0.75;64.60
72942;BME280;69665;55.822;37.330;2024-01-27T02:19:49;99469.03;;;-0.84;63.81
72942;BME280;69665;55.822;37.330;2024-01-27T02:22:14;99476.78;;;-0.86;64.00
72942;BME280;69665;55.822;37.330;2024-01-27T02:24:40;99461.19;;;-1.03;63.75
72942;BME280;69665;55.822;37.330;2024-01-27T02:27:05;99474.13;;;-0.96;63.51
72942;BME280;69665;55.822;37.330;2024-01-27T02:29:31;99480.16;;;-0.97;63.79
72942;BME280;69665;55.822;37.330;2024-01-27T02:31:56;99468.94;;;-1.03;64.14
72942;BME280;69665;55.822;37.330;2024-01-27T02:34:22;99494.84;;;-0.90;63.64
72942;BME280;69665;55.822;37.330;2024-01-27T02:36:48;99492.25;;;-0.92;63.74
72942;BME280;69665;55.822;37.330;2024-01-27T02:39:13;99485.38;;;-0.93;64.14
72942;BME280;69665;55.822;37.330;2024-01-27T02:41:39;99478.41;;;-1.00;63.57
72942;BME280;69665;55.822;37.330;2024-01-27T02:44:05;99493.13;;;-0.91;63.43
72942;BME280;69665;55.822;37.330;2024-01-27T02:46:31;99491.34;;;-1.06;62.87
72942;BME280;69665;55.822;37.330;2024-01-27T02:48:57;99496.38;;;-1.23;62.97
72942;BME280;69665;55.822;37.330;2024-01-27T02:51:25;99493.78;;;-1.24;63.63
72942;BME280;69665;55.822;37.330;2024-01-27T02:53:51;99494.63;;;-1.27;63.27
72942;BME280;69665;55.822;37.330;2024-01-27T02:56:16;99489.41;;;-1.34;63.13
72942;BME280;69665;55.822;37.330;2024-01-27T02:58:42;99499.75;;;-1.36;63.49
72942;BME280;69665;55.822;37.330;2024-01-27T03:01:08;99502.34;;;-1.34;63.56
72942;BME280;69665;55.822;37.330;2024-01-27T03:03:34;99491.81;;;-1.54;63.07
72942;BME280;69665;55.822;37.330;2024-01-27T03:05:59;99493.53;;;-1.61;63.42
72942;BME280;69665;55.822;37.330;2024-01-27T03:08:26;99499.44;;;-1.73;63.50
72942;BME280;69665;55.822;37.330;2024-01-27T03:10:52;99516.66;;;-1.72;63.62
72942;BME280;69665;55.822;37.330;2024-01-27T03:13:17;99497.63;;;-1.84;63.46
72942;BME280;69665;55.822;37.330;2024-01-27T03:15:44;99512.25;;;-1.80;63.18
72942;BME280;69665;55.822;37.330;2024-01-27T03:18:10;99519.13;;;-1.85;63.26
72942;BME280;69665;55.822;37.330;2024-01-27T03:20:35;99487.94;;;-2.07;63.50
72942;BME280;69665;55.822;37.330;2024-01-27T03:23:01;99488.75;;;-2.12;63.53
72942;BME280;69665;55.822;37.330;2024-01-27T03:25:26;99479.97;;;-2.28;64.32
72942;BME280;69665;55.822;37.330;2024-01-27T03:27:52;99493.69;;;-2.30;63.59
72942;BME280;69665;55.822;37.330;2024-01-27T03:30:18;99517.88;;;-2.21;64.51
72942;BME280;69665;55.822;37.330;2024-01-27T03:32:45;99510.03;;;-2.30;64.15
72942;BME280;69665;55.822;37.330;2024-01-27T03:35:10;99493.63;;;-2.40;64.52
72942;BME280;69665;55.822;37.330;2024-01-27T03:37:36;99522.91;;;-2.31;64.25
72942;BME280;69665;55.822;37.330;2024-01-27T03:40:02;99503.84;;;-2.46;63.91
72942;BME280;69665;55.822;37.330;2024-01-27T03:42:29;99532.28;;;-2.40;64.80
72942;BME280;69665;55.822;37.330;2024-01-27T03:44:55;99527.91;;;-2.45;63.95
72942;BME280;69665;55.822;37.330;2024-01-27T03:47:20;99513.31;;;-2.45;64.08
72942;BME280;69665;55.822;37.330;2024-01-27T03:49:46;99530.63;;;-2.31;64.20
72942;BME280;69665;55.822;37.330;2024-01-27T03:52:12;99515.09;;;-2.41;65.00
72942;BME280;69665;55.822;37.330;2024-01-27T03:54:38;99529.81;;;-2.29;64.01
72942;BME280;69665;55.822;37.330;2024-01-27T03:57:04;99519.44;;;-2.33;63.99
72942;BME280;69665;55.822;37.330;2024-01-27T03:59:29;99547.03;;;-2.26;63.97
72942;BME280;69665;55.822;37.330;2024-01-27T04:01:55;99547.00;;;-2.28;64.11
72942;BME280;69665;55.822;37.330;2024-01-27T04:04:21;99551.38;;;-2.22;64.15
72942;BME280;69665;55.822;37.330;2024-01-27T04:06:46;99550.47;;;-2.27;64.79
72942;BME280;69665;55.822;37.330;2024-01-27T04:09:12;99559.94;;;-2.25;63.99
72942;BME280;69665;55.822;37.330;2024-01-27T04:11:38;99562.44;;;-2.31;64.31
72942;BME280;69665;55.822;37.330;2024-01-27T04:14:06;99564.97;;;-2.37;63.97
72942;BME280;69665;55.822;37.330;2024-01-27T04:16:32;99567.56;;;-2.37;63.96
72942;BME280;69665;55.822;37.330;2024-01-27T04:18:57;99539.84;;;-2.52;64.74
72942;BME280;69665;55.822;37.330;2024-01-27T04:21:23;99550.22;;;-2.49;64.72
72942;BME280;69665;55.822;37.330;2024-01-27T04:23:49;99565.81;;;-2.38;64.17
72942;BME280;69665;55.822;37.330;2024-01-27T04:26:15;99563.22;;;-2.40;64.65
72942;BME280;69665;55.822;37.330;2024-01-27T04:28:41;99542.44;;;-2.52;64.28
72942;BME280;69665;55.822;37.330;2024-01-27T04:31:06;99579.63;;;-2.31;64.26
72942;BME280;69665;55.822;37.330;2024-01-27T04:33:32;99583.97;;;-2.29;63.83
72942;BME280;69665;55.822;37.330;2024-01-27T04:35:58;99583.91;;;-2.33;64.75
72942;BME280;69665;55.822;37.330;2024-01-27T04:38:24;99577.91;;;-2.31;64.66
72942;BME280;69665;55.822;37.330;2024-01-27T04:40:50;99583.06;;;-2.32;63.98
72942;BME280;69665;55.822;37.330;2024-01-27T04:43:17;99545.78;;;-2.57;63.86
72942;BME280;69665;55.822;37.330;2024-01-27T04:45:43;99570.88;;;-2.46;63.68
72942;BME280;69665;55.822;37.330;2024-01-27T04:48:10;99553.53;;;-2.57;63.67
72942;BME280;69665;55.822;37.330;2024-01-27T04:50:35;99564.78;;;-2.51;64.06
72942;BME280;69665;55.822;37.330;2024-01-27T04:53:01;99573.38;;;-2.50;64.37
72942;BME280;69665;55.822;37.330;2024-01-27T04:55:27;99564.75;;;-2.52;63.95
72942;BME280;69665;55.822;37.330;2024-01-27T04:57:53;99572.63;;;-2.43;64.49
72942;BME280;69665;55.822;37.330;2024-01-27T05:00:19;99585.78;;;-2.22;64.59
72942;BME280;69665;55.822;37.330;2024-01-27T05:02:45;99588.34;;;-2.23;64.72
72942;BME280;69665;55.822;37.330;2024-01-27T05:05:11;99591.81;;;-2.20;64.06
72942;BME280;69665;55.822;37.330;2024-01-27T05:07:38;99597.97;;;-2.10;64.30
72942;BME280;69665;55.822;37.330;2024-01-27T05:10:04;99604.00;;;-2.08;63.95
72942;BME280;69665;55.822;37.330;2024-01-27T05:12:30;99599.69;;;-2.09;63.68
72942;BME280;69665;55.822;37.330;2024-01-27T05:14:56;99602.25;;;-2.12;63.83
72942;BME280;69665;55.822;37.330;2024-01-27T05:17:22;99607.31;;;-2.18;63.59
72942;BME280;69665;55.822;37.330;2024-01-27T05:19:49;99615.91;;;-2.18;63.99
72942;BME280;69665;55.822;37.330;2024-01-27T05:22:14;99615.06;;;-2.17;63.72
72942;BME280;69665;55.822;37.330;2024-01-27T05:24:40;99603.91;;;-2.16;63.85
72942;BME280;69665;55.822;37.330;2024-01-27T05:27:05;99602.13;;;-2.20;64.27
72942;BME280;69665;55.822;37.330;2024-01-27T05:29:31;99602.97;;;-2.22;64.05
72942;BME280;69665;55.822;37.330;2024-01-27T05:31:57;99620.19;;;-2.20;64.02
72942;BME280;69665;55.822;37.330;2024-01-27T05:34:22;99630.47;;;-2.23;64.22
72942;BME280;69665;55.822;37.330;2024-01-27T05:37:10;99636.56;;;-2.16;64.41
72942;BME280;69665;55.822;37.330;2024-01-27T05:39:35;99634.88;;;-2.14;63.70
72942;BME280;69665;55.822;37.330;2024-01-27T05:42:01;99637.53;;;-2.10;64.21
72942;BME280;69665;55.822;37.330;2024-01-27T05:44:26;99630.56;;;-2.15;64.18
72942;BME280;69665;55.822;37.330;2024-01-27T05:46:52;99644.41;;;-2.07;63.94
72942;BME280;69665;55.822;37.330;2024-01-27T05:49:18;99628.00;;;-2.14;64.12
72942;BME280;69665;55.822;37.330;2024-01-27T05:51:43;99613.31;;;-2.21;63.67
72942;BME280;69665;55.822;37.330;2024-01-27T05:54:09;99639.19;;;-2.13;63.95
72942;BME280;69665;55.822;37.330;2024-01-27T05:56:35;99646.97;;;-2.10;63.46
72942;BME280;69665;55.822;37.330;2024-01-27T05:59:02;99629.59;;;-2.23;63.86
72942;BME280;69665;55.822;37.330;2024-01-27T06:01:28;99638.38;;;-2.11;64.00
72942;BME280;69665;55.822;37.330;2024-01-27T06:03:53;99632.38;;;-2.07;64.21
72942;BME280;69665;55.822;37.330;2024-01-27T06:06:19;99660.13;;;-1.89;63.76
72942;BME280;69665;55.822;37.330;2024-01-27T06:08:45;99662.72;;;-1.89;63.35
72942;BME280;69665;55.822;37.330;2024-01-27T06:11:10;99656.63;;;-1.94;63.01
72942;BME280;69665;55.822;37.330;2024-01-27T06:13:36;99635.91;;;-2.00;63.47
72942;BME280;69665;55.822;37.330;2024-01-27T06:16:07;99649.88;;;-1.84;63.13
72942;BME280;69665;55.822;37.330;2024-01-27T06:18:34;99651.63;;;-1.79;63.36
72942;BME280;69665;55.822;37.330;2024-01-27T06:21:02;99633.47;;;-1.88;63.65
72942;BME280;69665;55.822;37.330;2024-01-27T06:23:28;99664.72;;;-1.63;62.92
72942;BME280;69665;55.822;37.330;2024-01-27T06:25:54;99665.56;;;-1.64;63.41
72942;BME280;69665;55.822;37.330;2024-01-27T06:28:19;99669.81;;;-1.68;63.09
72942;BME280;69665;55.822;37.330;2024-01-27T06:30:45;99667.13;;;-1.77;63.17
72942;BME280;69665;55.822;37.330;2024-01-27T06:33:11;99661.94;;;-1.79;63.22
72942;BME280;69665;55.822;37.330;2024-01-27T06:35:37;99682.84;;;-1.59;62.95
72942;BME280;69665;55.822;37.330;2024-01-27T06:38:02;99675.25;;;-1.44;63.29
72942;BME280;69665;55.822;37.330;2024-01-27T06:40:28;99656.16;;;-1.59;63.25
72942;BME280;69665;55.822;37.330;2024-01-27T06:42:54;99661.16;;;-1.75;62.81
72942;BME280;69665;55.822;37.330;2024-01-27T06:45:19;99649.94;;;-1.77;62.94
72942;BME280;69665;55.822;37.330;2024-01-27T06:47:45;99629.31;;;-1.74;62.84
72942;BME280;69665;55.822;37.330;2024-01-27T06:50:10;99682.97;;;-1.45;62.71
72942;BME280;69665;55.822;37.330;2024-01-27T06:52:36;99684.75;;;-1.41;62.48
72942;BME280;69665;55.822;37.330;2024-01-27T06:55:02;99688.28;;;-1.34;62.73
72942;BME280;69665;55.822;37.330;2024-01-27T06:57:29;99672.63;;;-1.47;61.78
72942;BME280;69665;55.822;37.330;2024-01-27T06:59:55;99685.53;;;-1.48;61.93
72942;BME280;69665;55.822;37.330;2024-01-27T07:02:27;99681.13;;;-1.55;62.37
72942;BME280;69665;55.822;37.330;2024-01-27T07:04:54;99698.56;;;-1.38;62.69
72942;BME280;69665;55.822;37.330;2024-01-27T07:07:26;99669.97;;;-1.53;62.45
72942;BME280;69665;55.822;37.330;2024-01-27T07:09:54;99700.31;;;-1.37;62.57
72942;BME280;69665;55.822;37.330;2024-01-27T07:12:20;99700.31;;;-1.35;62.11
72942;BME280;69665;55.822;37.330;2024-01-27T07:14:45;99707.25;;;-1.28;62.27
72942;BME280;69665;55.822;37.330;2024-01-27T07:17:11;99716.00;;;-1.17;61.68
72942;BME280;69665;55.822;37.330;2024-01-27T07:19:36;99716.00;;;-1.15;62.26
72942;BME280;69665;55.822;37.330;2024-01-27T07:22:02;99701.31;;;-1.21;61.73
72942;BME280;69665;55.822;37.330;2024-01-27T07:24:31;99719.59;;;-0.99;61.98
72942;BME280;69665;55.822;37.330;2024-01-27T07:26:57;99722.25;;;-0.93;61.66
72942;BME280;69665;55.822;37.330;2024-01-27T07:29:24;99707.53;;;-1.00;61.14
72942;BME280;69665;55.822;37.330;2024-01-27T07:31:49;99729.16;;;-0.92;61.82
72942;BME280;69665;55.822;37.330;2024-01-27T07:34:15;99735.28;;;-0.83;61.57
72942;BME280;69665;55.822;37.330;2024-01-27T07:36:41;99743.91;;;-0.82;61.31
72942;BME280;69665;55.822;37.330;2024-01-27T07:39:07;99747.31;;;-0.85;61.03
72942;BME280;69665;55.822;37.330;2024-01-27T07:41:33;99749.03;;;-0.85;61.17
72942;BME280;69665;55.822;37.330;2024-01-27T07:44:07;99742.09;;;-0.89;61.24
72942;BME280;69665;55.822;37.330;2024-01-27T07:46:33;99727.31;;;-1.06;61.11
72942;BME280;69665;55.822;37.330;2024-01-27T07:48:59;99751.53;;;-0.94;61.76
72942;BME280;69665;55.822;37.330;2024-01-27T07:51:25;99743.81;;;-0.90;61.64
72942;BME280;69665;55.822;37.330;2024-01-27T07:53:50;99736.16;;;-0.81;61.81
72942;BME280;69665;55.822;37.330;2024-01-27T07:56:16;99745.78;;;-0.64;62.14
72942;BME280;69665;55.822;37.330;2024-01-27T07:58:42;99757.13;;;-0.46;61.89
72942;BME280;69665;55.822;37.330;2024-01-27T08:01:07;99749.38;;;-0.43;61.79
72942;BME280;69665;55.822;37.330;2024-01-27T08:03:33;99769.34;;;-0.23;61.58
72942;BME280;69665;55.822;37.330;2024-01-27T08:05:58;99755.56;;;-0.24;61.93
72942;BME280;69665;55.822;37.330;2024-01-27T08:08:24;99768.56;;;-0.15;62.09
72942;BME280;69665;55.822;37.330;2024-01-27T08:10:50;99728.72;;;-0.40;61.57
72942;BME280;69665;55.822;37.330;2024-01-27T08:13:15;99772.06;;;-0.10;61.19
72942;BME280;69665;55.822;37.330;2024-01-27T08:15:41;99771.25;;;-0.04;61.33
72942;BME280;69665;55.822;37.330;2024-01-27T08:18:06;99754.00;;;-0.04;61.23
72942;BME280;69665;55.822;37.330;2024-01-27T08:20:32;99767.00;;;0.10;61.33
72942;BME280;69665;55.822;37.330;2024-01-27T08:22:58;99780.84;;;0.15;60.85
72942;BME280;69665;55.822;37.330;2024-01-27T08:25:26;99784.28;;;0.14;60.73
72942;BME280;69665;55.822;37.330;2024-01-27T08:27:52;99788.63;;;0.18;60.58
72942;BME280;69665;55.822;37.330;2024-01-27T08:30:18;99776.53;;;0.17;61.23
72942;BME280;69665;55.822;37.330;2024-01-27T08:32:46;99772.16;;;0.07;61.25
72942;BME280;69665;55.822;37.330;2024-01-27T08:35:12;99785.97;;;0.09;60.73
72942;BME280;69665;55.822;37.330;2024-01-27T08:37:38;99798.91;;;0.09;61.42
72942;BME280;69665;55.822;37.330;2024-01-27T08:40:07;99796.31;;;0.08;60.99
72942;BME280;69665;55.822;37.330;2024-01-27T08:42:33;99795.47;;;0.10;60.65
72942;BME280;69665;55.822;37.330;2024-01-27T08:44:59;99779.88;;;0.03;60.73
72942;BME280;69665;55.822;37.330;2024-01-27T08:47:24;99783.38;;;0.09;61.06
72942;BME280;69665;55.822;37.330;2024-01-27T08:49:50;99764.19;;;-0.22;61.85
72942;BME280;69665;55.822;37.330;2024-01-27T08:52:16;99772.78;;;-0.30;61.49
72942;BME280;69665;55.822;37.330;2024-01-27T08:54:41;99764.06;;;-0.42;61.46
72942;BME280;69665;55.822;37.330;2024-01-27T08:57:07;99800.38;;;-0.31;61.47
72942;BME280;69665;55.822;37.330;2024-01-27T08:59:33;99753.63;;;-0.54;61.08
72942;BME280;69665;55.822;37.330;2024-01-27T09:01:58;99787.44;;;-0.31;61.05
72942;BME280;69665;55.822;37.330;2024-01-27T09:04:24;99768.47;;;-0.30;61.46
72942;BME280;69665;55.822;37.330;2024-01-27T09:06:50;99783.31;;;-0.05;61.44
72942;BME280;69665;55.822;37.330;2024-01-27T09:09:15;99792.00;;;0.08;61.05
72942;BME280;69665;55.822;37.330;2024-01-27T09:11:41;99777.31;;;0.04;61.44
72942;BME280;69665;55.822;37.330;2024-01-27T09:14:06;99778.25;;;0.15;60.94
72942;BME280;69665;55.822;37.330;2024-01-27T09:16:33;99772.28;;;0.24;60.88
72942;BME280;69665;55.822;37.330;2024-01-27T09:18:58;99792.16;;;0.32;60.10
72942;BME280;69665;55.822;37.330;2024-01-27T09:21:24;99778.28;;;0.20;59.97
72942;BME280;69665;55.822;37.330;2024-01-27T09:23:54;99775.63;;;0.11;60.05
72942;BME280;69665;55.822;37.330;2024-01-27T09:26:20;99800.75;;;0.24;61.06
72942;BME280;69665;55.822;37.330;2024-01-27T09:28:46;99791.25;;;0.29;61.04
72942;BME280;69665;55.822;37.330;2024-01-27T09:31:21;99800.03;;;0.48;60.85
72942;BME280;69665;55.822;37.330;2024-01-27T09:33:49;99806.06;;;0.50;60.48
72942;BME280;69665;55.822;37.330;2024-01-27T09:36:15;99805.19;;;0.45;59.42
72942;BME280;69665;55.822;37.330;2024-01-27T09:38:41;99786.94;;;0.23;59.68
72942;BME280;69665;55.822;37.330;2024-01-27T09:41:07;99789.53;;;0.28;60.55
72942;BME280;69665;55.822;37.330;2024-01-27T09:43:32;99784.38;;;0.29;60.20
72942;BME280;69665;55.822;37.330;2024-01-27T09:45:58;99809.50;;;0.43;60.35
72942;BME280;69665;55.822;37.330;2024-01-27T09:48:24;99827.63;;;0.43;59.92
72942;BME280;69665;55.822;37.330;2024-01-27T09:50:52;99811.97;;;0.24;60.29
72942;BME280;69665;55.822;37.330;2024-01-27T09:53:19;99812.84;;;0.23;61.32
72942;BME280;69665;55.822;37.330;2024-01-27T09:55:44;99822.34;;;0.30;61.01
72942;BME280;69665;55.822;37.330;2024-01-27T09:58:10;99822.34;;;0.30;61.24
72942;BME280;69665;55.822;37.330;2024-01-27T10:00:37;99808.50;;;0.19;60.65
72942;BME280;69665;55.822;37.330;2024-01-27T10:03:04;99808.50;;;0.27;60.46
72942;BME280;69665;55.822;37.330;2024-01-27T10:05:32;99836.28;;;0.48;60.68
72942;BME280;69665;55.822;37.330;2024-01-27T10:07:58;99831.13;;;0.49;60.34
72942;BME280;69665;55.822;37.330;2024-01-27T10:10:23;99843.19;;;0.47;61.00
72942;BME280;69665;55.822;37.330;2024-01-27T10:12:52;99841.41;;;0.39;60.56
72942;BME280;69665;55.822;37.330;2024-01-27T10:15:20;99842.19;;;0.28;61.40
72942;BME280;69665;55.822;37.330;2024-01-27T10:17:46;99836.97;;;0.21;60.14
72942;BME280;69665;55.822;37.330;2024-01-27T10:20:12;99845.69;;;0.33;60.07
72942;BME280;69665;55.822;37.330;2024-01-27T10:22:43;99831.84;;;0.31;60.85
72942;BME280;69665;55.822;37.330;2024-01-27T10:25:10;99828.38;;;0.23;61.00
72942;BME280;69665;55.822;37.330;2024-01-27T10:27:36;99845.63;;;0.21;61.06
72942;BME280;69665;55.822;37.330;2024-01-27T10:30:03;99815.19;;;-0.12;61.22
72942;BME280;69665;55.822;37.330;2024-01-27T10:32:32;99840.28;;;-0.02;61.40
72942;BME280;69665;55.822;37.330;2024-01-27T10:35:07;99844.59;;;0.04;60.80
72942;BME280;69665;55.822;37.330;2024-01-27T10:37:34;99846.31;;;-0.03;60.58
72942;BME280;69665;55.822;37.330;2024-01-27T10:40:04;99869.72;;;0.13;60.83
72942;BME280;69665;55.822;37.330;2024-01-27T10:42:30;99862.81;;;0.15;61.10
72942;BME280;69665;55.822;37.330;2024-01-27T10:44:58;99854.16;;;0.11;60.57
72942;BME280;69665;55.822;37.330;2024-01-27T10:47:27;99867.09;;;0.10;60.81
72942;BME280;69665;55.822;37.330;2024-01-27T10:49:55;99860.13;;;0.01;61.24
72942;BME280;69665;55.822;37.330;2024-01-27T10:52:23;99849.72;;;-0.08;60.88
72942;BME280;69665;55.822;37.330;2024-01-27T10:54:50;99869.66;;;0.05;61.03
72942;BME280;69665;55.822;37.330;2024-01-27T10:57:17;99855.78;;;-0.03;61.21
72942;BME280;69665;55.822;37.330;2024-01-27T10:59:44;99862.75;;;0.06;60.46
72942;BME280;69665;55.822;37.330;2024-01-27T11:02:12;99874.94;;;0.19;61.96
72942;BME280;69665;55.822;37.330;2024-01-27T11:04:41;99867.91;;;0.06;60.39
72942;BME280;69665;55.822;37.330;2024-01-27T11:07:07;99881.72;;;0.06;61.83
72942;BME280;69665;55.822;37.330;2024-01-27T11:09:35;99879.88;;;-0.10;61.02
72942;BME280;69665;55.822;37.330;2024-01-27T11:12:02;99897.19;;;-0.06;60.62
72942;BME280;69665;55.822;37.330;2024-01-27T11:14:28;99884.28;;;-0.02;60.73
72942;BME280;69665;55.822;37.330;2024-01-27T11:16:57;99898.19;;;0.13;60.92
72942;BME280;69665;55.822;37.330;2024-01-27T11:19:27;99892.97;;;0.08;59.83
72942;BME280;69665;55.822;37.330;2024-01-27T11:22:03;99895.47;;;0.00;60.89
72942;BME280;69665;55.822;37.330;2024-01-27T11:24:29;99884.25;;;-0.06;60.65
72942;BME280;69665;55.822;37.330;2024-01-27T11:27:04;99898.94;;;-0.02;60.54
72942;BME280;69665;55.822;37.330;2024-01-27T11:29:30;99873.81;;;-0.14;61.06
72942;BME280;69665;55.822;37.330;2024-01-27T11:32:02;99903.31;;;0.07;61.34
72942;BME280;69665;55.822;37.330;2024-01-27T11:34:28;99888.53;;;-0.07;60.59
72942;BME280;69665;55.822;37.330;2024-01-27T11:36:54;99907.66;;;0.09;60.19
72942;BME280;69665;55.822;37.330;2024-01-27T11:39:24;99909.41;;;0.13;60.28
72942;BME280;69665;55.822;37.330;2024-01-27T11:41:51;99921.53;;;0.17;60.60
72942;BME280;69665;55.822;37.330;2024-01-27T11:44:17;99923.28;;;0.18;60.39
72942;BME280;69665;55.822;37.330;2024-01-27T11:46:44;99917.25;;;0.19;60.12
72942;BME280;69665;55.822;37.330;2024-01-27T11:49:15;99923.31;;;0.24;60.18
72942;BME280;69665;55.822;37.330;2024-01-27T11:51:41;99910.38;;;0.23;60.53
72942;BME280;69665;55.822;37.330;2024-01-27T11:54:07;99926.81;;;0.31;59.69
72942;BME280;69665;55.822;37.330;2024-01-27T11:56:32;99926.00;;;0.38;59.41
72942;BME280;69665;55.822;37.330;2024-01-27T11:58:58;99924.19;;;0.29;60.11
72942;BME280;69665;55.822;37.330;2024-01-27T12:01:24;99919.88;;;0.24;60.31
72942;BME280;69665;55.822;37.330;2024-01-27T12:03:49;99937.22;;;0.39;59.60
72942;BME280;69665;55.822;37.330;2024-01-27T12:06:15;99913.81;;;0.22;59.69
72942;BME280;69665;55.822;37.330;2024-01-27T12:08:41;99943.25;;;0.38;60.44
72942;BME280;69665;55.822;37.330;2024-01-27T12:11:16;99939.66;;;0.16;60.30
72942;BME280;69665;55.822;37.330;2024-01-27T12:13:42;99951.66;;;0.08;60.25
72942;BME280;69665;55.822;37.330;2024-01-27T12:16:08;99948.09;;;-0.05;60.77
72942;BME280;69665;55.822;37.330;2024-01-27T12:18:35;99941.97;;;-0.12;60.84
72942;BME280;69665;55.822;37.330;2024-01-27T12:21:01;99966.25;;;-0.02;60.28
72942;BME280;69665;55.822;37.330;2024-01-27T12:23:26;99972.19;;;-0.09;60.87
72942;BME280;69665;55.822;37.330;2024-01-27T12:25:53;99968.63;;;-0.20;61.96
72942;BME280;69665;55.822;37.330;2024-01-27T12:28:19;99990.84;;;-0.39;61.09
72942;BME280;69665;55.822;37.330;2024-01-27T12:30:46;99995.94;;;-0.45;61.53
72942;BME280;69665;55.822;37.330;2024-01-27T12:33:12;99989.72;;;-0.62;61.45
72942;BME280;69665;55.822;37.330;2024-01-27T12:35:39;99975.84;;;-0.69;61.55
72942;BME280;69665;55.822;37.330;2024-01-27T12:38:06;99997.56;;;-0.55;61.20
72942;BME280;69665;55.822;37.330;2024-01-27T12:40:31;99990.69;;;-0.51;61.44
72942;BME280;69665;55.822;37.330;2024-01-27T12:42:57;100006.44;;;-0.35;61.13
72942;BME280;69665;55.822;37.330;2024-01-27T12:45:23;99997.84;;;-0.32;61.15
72942;BME280;69665;55.822;37.330;2024-01-27T12:47:49;100005.72;;;-0.20;61.16